createdAt,value
2023-05-05T00:01:22.155Z,5.47
2023-05-05T00:03:49.192Z,5.50
2023-05-05T00:06:16.184Z,5.68
2023-05-05T00:08:42.903Z,5.10
2023-05-05T00:11:09.704Z,5.38
2023-05-05T00:13:36.470Z,5.72
2023-05-05T00:16:03.273Z,4.97
2023-05-05T00:18:30.214Z,5.20
2023-05-05T00:20:57.055Z,5.47
2023-05-05T00:23:23.693Z,5.22
2023-05-05T00:25:50.355Z,5.43
2023-05-05T00:28:17.295Z,5.47
2023-05-05T00:30:44.071Z,6.00
2023-05-05T00:33:11.147Z,5.13
2023-05-05T00:35:37.982Z,5.07
2023-05-05T00:38:05.046Z,5.38
2023-05-05T00:40:31.863Z,5.85
2023-05-05T00:42:59.645Z,5.80
2023-05-05T00:45:26.584Z,5.43
2023-05-05T00:47:59.204Z,5.70
2023-05-05T00:50:30.934Z,6.15
2023-05-05T00:55:32.056Z,5.45
2023-05-05T00:58:00.312Z,4.90
2023-05-05T01:00:28.277Z,5.75
2023-05-05T01:02:55.600Z,6.20
2023-05-05T01:05:24.546Z,5.95
2023-05-05T01:08:00.222Z,6.03
2023-05-05T01:10:34.847Z,5.40
2023-05-05T01:13:09.000Z,5.95
2023-05-05T01:15:46.579Z,5.80
2023-05-05T01:18:28.520Z,5.55
2023-05-05T01:20:55.136Z,5.57
2023-05-05T01:23:59.321Z,6.10
2023-05-05T01:26:52.013Z,5.50
2023-05-05T01:29:24.492Z,5.68
2023-05-05T01:31:57.887Z,5.70
2023-05-05T01:34:27.944Z,5.65
2023-05-05T01:37:10.092Z,5.77
2023-05-05T01:39:39.066Z,5.45
2023-05-05T01:42:10.233Z,5.35
2023-05-05T01:44:38.282Z,5.13
2023-05-05T01:47:06.612Z,5.43
2023-05-05T01:49:36.118Z,5.35
2023-05-05T01:52:05.012Z,5.03
2023-05-05T01:54:34.632Z,5.50
2023-05-05T01:57:04.875Z,5.25
2023-05-05T01:59:33.369Z,5.60
2023-05-05T02:02:02.836Z,6.25
2023-05-05T02:04:31.699Z,5.90
2023-05-05T02:06:59.686Z,6.45
2023-05-05T02:09:28.620Z,5.72
2023-05-05T02:11:58.147Z,6.20
2023-05-05T02:14:28.758Z,5.65
2023-05-05T02:16:57.076Z,6.03
2023-05-05T02:19:30.966Z,6.00
2023-05-05T02:21:58.193Z,5.30
2023-05-05T02:24:26.468Z,5.30
2023-05-05T02:26:55.094Z,5.60
2023-05-05T02:29:31.388Z,6.72
2023-05-05T02:32:05.056Z,5.53
2023-05-05T02:34:36.799Z,5.93
2023-05-05T02:37:11.192Z,5.32
2023-05-05T02:39:45.380Z,5.85
2023-05-05T02:42:20.390Z,6.25
2023-05-05T02:44:51.807Z,5.50
2023-05-05T02:47:20.856Z,5.18
2023-05-05T02:49:48.241Z,5.97
2023-05-05T02:52:15.036Z,5.47
2023-05-05T02:54:44.029Z,5.95
2023-05-05T02:57:20.366Z,6.32
2023-05-05T03:00:05.991Z,5.68
2023-05-05T03:02:45.239Z,6.55
2023-05-05T03:05:21.764Z,5.90
2023-05-05T03:07:56.069Z,5.90
2023-05-05T03:10:32.534Z,6.28
2023-05-05T03:13:03.040Z,6.50
2023-05-05T03:15:52.444Z,6.20
2023-05-05T03:18:24.252Z,6.90
2023-05-05T03:20:59.159Z,6.85
2023-05-05T03:23:26.043Z,6.70
2023-05-05T03:25:57.604Z,6.40
2023-05-05T03:28:37.514Z,6.15
2023-05-05T03:31:12.980Z,6.35
2023-05-05T03:33:39.822Z,6.65
2023-05-05T03:36:06.781Z,6.82
2023-05-05T03:38:34.237Z,6.05
2023-05-05T03:41:03.306Z,6.25
2023-05-05T03:43:31.021Z,6.30
2023-05-05T03:45:58.259Z,6.35
2023-05-05T03:48:25.427Z,6.13
2023-05-05T03:50:53.932Z,6.03
2023-05-05T03:53:22.725Z,6.28
2023-05-05T03:55:49.488Z,5.90
2023-05-05T03:58:16.698Z,5.88
2023-05-05T04:00:43.402Z,6.25
2023-05-05T04:03:11.582Z,5.88
2023-05-05T04:05:38.639Z,5.53
2023-05-05T04:08:05.746Z,5.78
2023-05-05T04:10:32.744Z,5.72
2023-05-05T04:13:00.473Z,5.50
2023-05-05T04:15:28.983Z,5.55
2023-05-05T04:17:55.867Z,5.97
2023-05-05T04:20:22.647Z,6.25
2023-05-05T04:22:52.651Z,5.95
2023-05-05T04:25:21.135Z,6.18
2023-05-05T04:27:49.091Z,5.90
2023-05-05T04:30:16.020Z,6.50
2023-05-05T04:32:43.017Z,6.30
2023-05-05T04:35:11.337Z,6.28
2023-05-05T04:37:38.449Z,6.47
2023-05-05T04:40:05.924Z,6.55
2023-05-05T04:42:34.078Z,6.65
2023-05-05T04:45:02.038Z,6.63
2023-05-05T04:47:29.673Z,6.55
2023-05-05T04:49:56.443Z,6.50
2023-05-05T04:52:23.115Z,7.35
2023-05-05T04:54:49.892Z,7.35
2023-05-05T04:57:17.352Z,7.53
2023-05-05T04:59:44.184Z,7.45
2023-05-05T05:02:10.869Z,7.03
2023-05-05T05:04:37.508Z,7.22
2023-05-05T05:07:04.164Z,6.80
2023-05-05T05:09:31.503Z,7.93
2023-05-05T05:12:04.505Z,7.45
2023-05-05T05:14:36.814Z,7.85
2023-05-05T05:17:04.233Z,7.57
2023-05-05T05:19:31.164Z,7.10
2023-05-05T05:21:58.337Z,7.45
2023-05-05T05:24:26.244Z,7.57
2023-05-05T05:26:53.979Z,7.55
2023-05-05T05:29:20.697Z,7.95
2023-05-05T05:31:48.501Z,7.13
2023-05-05T05:34:15.237Z,7.35
2023-05-05T05:36:42.819Z,7.15
2023-05-05T05:39:09.617Z,7.35
2023-05-05T05:41:36.292Z,7.63
2023-05-05T05:44:03.427Z,6.80
2023-05-05T05:46:30.761Z,7.32
2023-05-05T05:48:57.791Z,6.30
2023-05-05T05:51:25.016Z,6.65
2023-05-05T05:53:52.362Z,6.63
2023-05-05T05:56:19.350Z,7.50
2023-05-05T05:58:48.530Z,6.95
2023-05-05T06:01:16.056Z,6.78
2023-05-05T06:03:43.677Z,6.30
2023-05-05T06:06:10.985Z,5.90
2023-05-05T06:08:37.819Z,6.50
2023-05-05T06:11:04.567Z,6.10
2023-05-05T06:13:31.279Z,6.13
2023-05-05T06:15:57.973Z,6.13
2023-05-05T06:18:24.918Z,6.50
2023-05-05T06:20:52.397Z,6.97
2023-05-05T06:23:21.253Z,6.97
2023-05-05T06:25:54.620Z,7.00
2023-05-05T06:28:21.550Z,6.43
2023-05-05T06:30:48.195Z,6.88
2023-05-05T06:33:14.869Z,6.45
2023-05-05T06:35:41.503Z,7.22
2023-05-05T06:38:08.195Z,6.20
2023-05-05T06:40:34.808Z,7.10
2023-05-05T06:43:01.533Z,7.53
2023-05-05T06:45:34.311Z,6.22
2023-05-05T06:48:00.995Z,7.15
2023-05-05T06:50:27.691Z,6.85
2023-05-05T06:52:54.417Z,6.53
2023-05-05T06:55:21.259Z,7.53
2023-05-05T06:57:47.917Z,6.78
2023-05-05T07:00:15.314Z,6.80
2023-05-05T07:02:42.019Z,5.65
2023-05-05T07:05:08.940Z,6.05
2023-05-05T07:07:36.368Z,5.45
2023-05-05T07:10:03.083Z,5.30
2023-05-05T07:12:33.786Z,6.38
2023-05-05T07:15:03.213Z,6.40
2023-05-05T07:17:36.276Z,5.30
2023-05-05T07:20:03.094Z,4.93
2023-05-05T07:22:29.708Z,6.10
2023-05-05T07:24:56.352Z,5.50
2023-05-05T07:27:23.144Z,5.55
2023-05-05T07:29:49.880Z,5.03
2023-05-05T07:32:16.638Z,5.30
2023-05-05T07:34:44.494Z,4.82
2023-05-05T07:37:11.176Z,4.93
2023-05-05T07:39:37.808Z,5.40
2023-05-05T07:42:04.524Z,5.15
2023-05-05T07:44:31.722Z,4.78
2023-05-05T07:46:58.472Z,4.95
2023-05-05T07:49:25.386Z,4.30
2023-05-05T07:51:52.140Z,4.13
2023-05-05T07:54:19.155Z,5.18
2023-05-05T07:56:45.903Z,4.75
2023-05-05T07:59:13.042Z,3.85
2023-05-05T08:01:39.773Z,4.10
2023-05-05T08:04:06.667Z,4.38
2023-05-05T08:06:33.567Z,3.60
2023-05-05T08:09:01.424Z,4.03
2023-05-05T08:11:29.641Z,4.20
2023-05-05T08:13:56.423Z,4.35
2023-05-05T08:16:23.094Z,4.05
2023-05-05T08:18:49.760Z,3.75
2023-05-05T08:21:16.470Z,3.63
2023-05-05T08:23:43.087Z,3.38
2023-05-05T08:26:09.737Z,6.78
2023-05-05T08:28:36.890Z,3.90
2023-05-05T08:31:06.900Z,3.60
2023-05-05T08:33:33.654Z,4.40
2023-05-05T08:36:00.436Z,4.18
2023-05-05T08:38:27.253Z,4.07
2023-05-05T08:40:53.934Z,3.35
2023-05-05T08:43:22.859Z,3.80
2023-05-05T08:45:51.308Z,4.15
2023-05-05T08:48:22.778Z,4.10
2023-05-05T08:50:59.960Z,4.20
2023-05-05T08:53:52.712Z,4.43
2023-05-05T08:56:21.917Z,4.07
2023-05-05T08:58:50.950Z,3.70
2023-05-05T09:01:18.441Z,3.80
2023-05-05T09:03:46.257Z,3.72
2023-05-05T09:06:13.046Z,3.85
2023-05-05T09:08:39.955Z,3.75
2023-05-05T09:11:06.643Z,3.30
2023-05-05T09:13:33.339Z,3.50
2023-05-05T09:16:00.043Z,3.53
2023-05-05T09:18:27.153Z,3.80
2023-05-05T09:20:53.783Z,3.55
2023-05-05T09:23:21.460Z,3.63
2023-05-05T09:26:03.746Z,3.17
2023-05-05T09:28:30.792Z,3.42
2023-05-05T09:31:12.659Z,3.67
2023-05-05T09:36:06.309Z,3.78
2023-05-05T09:38:34.860Z,3.70
2023-05-05T09:41:01.615Z,3.20
2023-05-05T09:43:28.267Z,2.97
2023-05-05T09:46:07.658Z,3.42
2023-05-05T09:48:34.575Z,3.13
2023-05-05T09:51:01.416Z,3.22
2023-05-05T09:53:39.103Z,3.55
2023-05-05T09:56:06.964Z,3.05
2023-05-05T09:58:33.739Z,3.83
2023-05-05T10:01:00.740Z,3.17
2023-05-05T10:03:27.480Z,3.50
2023-05-05T10:05:56.535Z,2.90
2023-05-05T10:08:24.323Z,2.80
2023-05-05T10:10:54.901Z,3.13
2023-05-05T10:13:23.645Z,2.80
2023-05-05T10:15:53.131Z,3.38
2023-05-05T10:18:22.472Z,2.80
2023-05-05T10:21:03.225Z,2.97
2023-05-05T10:23:57.920Z,3.10
2023-05-05T10:26:27.633Z,2.90
2023-05-05T10:29:03.141Z,3.10
2023-05-05T10:31:52.547Z,2.90
2023-05-05T10:34:39.313Z,2.85
2023-05-05T10:37:06.896Z,2.97
2023-05-05T10:39:37.513Z,2.85
2023-05-05T10:42:04.440Z,2.60
2023-05-05T10:44:34.213Z,2.83
2023-05-05T10:47:02.128Z,2.67
2023-05-05T10:49:44.767Z,2.63
2023-05-05T10:52:25.942Z,2.30
2023-05-05T10:55:07.828Z,2.67
2023-05-05T10:57:38.813Z,2.78
2023-05-05T11:00:08.519Z,2.40
2023-05-05T11:02:36.197Z,2.38
2023-05-05T11:05:08.244Z,2.33
2023-05-05T11:07:35.539Z,2.30
2023-05-05T11:10:05.204Z,2.83
2023-05-05T11:12:33.577Z,2.30
2023-05-05T11:15:22.215Z,2.80
2023-05-05T11:17:49.031Z,2.55
2023-05-05T11:20:15.920Z,2.42
2023-05-05T11:23:04.845Z,2.40
2023-05-05T11:25:35.217Z,2.20
2023-05-05T11:28:12.059Z,2.50
2023-05-05T11:30:58.163Z,2.50
2023-05-05T11:33:45.763Z,2.20
2023-05-05T11:36:14.717Z,2.25
2023-05-05T11:39:23.071Z,2.40
2023-05-05T11:41:58.586Z,2.10
2023-05-05T11:44:35.711Z,2.10
2023-05-05T11:47:05.143Z,2.33
2023-05-05T11:49:32.820Z,3.05
2023-05-05T11:52:00.465Z,2.75
2023-05-05T11:54:27.486Z,2.75
2023-05-05T11:57:08.434Z,2.80
2023-05-05T11:59:37.506Z,2.70
2023-05-05T12:02:04.755Z,2.47
2023-05-05T12:04:32.200Z,2.42
2023-05-05T12:06:59.409Z,2.72
2023-05-05T12:09:27.244Z,2.95
2023-05-05T12:11:56.587Z,2.58
2023-05-05T12:14:24.364Z,2.50
2023-05-05T12:17:03.043Z,2.50
2023-05-05T12:19:33.158Z,3.10
2023-05-05T12:22:01.034Z,2.20
2023-05-05T12:24:28.082Z,2.72
2023-05-05T12:26:54.743Z,2.35
2023-05-05T12:29:28.801Z,2.30
2023-05-05T12:31:58.145Z,2.75
2023-05-05T12:34:25.001Z,2.30
2023-05-05T12:36:51.898Z,1.95
2023-05-05T12:39:18.915Z,2.38
2023-05-05T12:41:45.744Z,2.45
2023-05-05T12:44:12.403Z,2.70
2023-05-05T12:46:46.060Z,2.45
2023-05-05T12:49:12.747Z,3.00
2023-05-05T12:51:52.181Z,2.60
2023-05-05T12:54:18.824Z,2.30
2023-05-05T12:56:47.986Z,2.92
2023-05-05T12:59:24.157Z,2.80
2023-05-05T13:01:55.546Z,2.60
2023-05-05T13:04:27.491Z,3.08
2023-05-05T13:07:12.205Z,2.67
2023-05-05T13:09:39.196Z,2.47
2023-05-05T13:12:08.269Z,2.53
2023-05-05T13:14:36.358Z,2.42
2023-05-05T13:17:03.461Z,2.30
2023-05-05T13:19:30.813Z,2.38
2023-05-05T13:21:58.765Z,2.42
2023-05-05T13:24:38.064Z,2.90
2023-05-05T13:27:09.584Z,2.58
2023-05-05T13:29:36.384Z,2.60
2023-05-05T13:32:03.322Z,2.47
2023-05-05T13:34:30.179Z,2.42
2023-05-05T13:36:56.857Z,2.35
2023-05-05T13:39:23.559Z,2.55
2023-05-05T13:41:50.466Z,2.40
2023-05-05T13:44:17.216Z,2.30
2023-05-05T13:46:43.955Z,2.40
2023-05-05T13:49:11.213Z,2.30
2023-05-05T13:51:39.195Z,2.13
2023-05-05T13:54:06.932Z,2.40
2023-05-05T13:56:34.363Z,2.05
2023-05-05T13:59:01.409Z,2.47
2023-05-05T14:01:28.689Z,2.35
2023-05-05T14:03:57.236Z,2.47
2023-05-05T14:06:24.501Z,2.40
2023-05-05T14:08:51.676Z,2.63
2023-05-05T14:11:18.399Z,2.58
2023-05-05T14:13:46.498Z,2.38
2023-05-05T14:16:13.516Z,2.65
2023-05-05T14:18:40.804Z,2.50
2023-05-05T14:21:07.630Z,2.60
2023-05-05T14:23:34.335Z,2.55
2023-05-05T14:26:01.197Z,2.42
2023-05-05T14:28:27.833Z,2.50
2023-05-05T14:30:54.582Z,2.67
2023-05-05T14:33:22.182Z,2.90
2023-05-05T14:35:49.082Z,3.20
2023-05-05T14:38:15.943Z,2.50
2023-05-05T14:40:42.672Z,2.63
2023-05-05T14:43:09.383Z,2.83
2023-05-05T14:45:36.071Z,2.63
2023-05-05T14:48:02.834Z,2.55
2023-05-05T14:50:29.537Z,2.70
2023-05-05T14:52:56.352Z,2.97
2023-05-05T14:55:24.936Z,2.88
2023-05-05T14:57:51.992Z,2.67
2023-05-05T15:00:19.153Z,2.20
2023-05-05T15:02:48.012Z,2.53
2023-05-05T15:05:14.983Z,2.78
2023-05-05T15:07:41.729Z,2.50
2023-05-05T15:10:08.725Z,2.47
2023-05-05T15:12:35.560Z,2.35
2023-05-05T15:15:02.267Z,2.47
2023-05-05T15:17:30.759Z,2.60
2023-05-05T15:19:57.661Z,2.53
2023-05-05T15:22:24.355Z,2.72
2023-05-05T15:24:51.030Z,2.42
2023-05-05T15:27:18.316Z,2.70
2023-05-05T15:29:45.302Z,2.78
2023-05-05T15:32:12.206Z,2.40
2023-05-05T15:34:38.909Z,2.53
2023-05-05T15:37:05.743Z,2.63
2023-05-05T15:39:32.405Z,2.42
2023-05-05T15:42:02.680Z,2.70
2023-05-05T15:44:30.028Z,2.85
2023-05-05T15:46:56.764Z,2.53
2023-05-05T15:49:23.439Z,2.28
2023-05-05T15:51:50.078Z,2.53
2023-05-05T15:54:16.798Z,2.70
2023-05-05T15:56:43.538Z,2.83
2023-05-05T15:59:10.272Z,2.47
2023-05-05T16:01:37.087Z,2.70
2023-05-05T16:04:03.965Z,2.60
2023-05-05T16:06:30.649Z,2.40
2023-05-05T16:08:58.628Z,2.50
2023-05-05T16:11:26.567Z,2.55
2023-05-05T16:13:53.776Z,2.78
2023-05-05T16:16:20.796Z,2.60
2023-05-05T16:18:47.722Z,2.97
2023-05-05T16:21:14.471Z,2.70
2023-05-05T16:23:41.408Z,2.70
2023-05-05T16:26:08.425Z,2.78
2023-05-05T16:28:35.102Z,3.00
2023-05-05T16:31:02.286Z,2.90
2023-05-05T16:33:29.339Z,2.63
2023-05-05T16:35:56.176Z,3.00
2023-05-05T16:38:23.028Z,2.80
2023-05-05T16:40:49.721Z,2.80
2023-05-05T16:43:16.469Z,2.70
2023-05-05T16:45:43.619Z,2.90
2023-05-05T16:48:10.410Z,2.92
2023-05-05T16:50:37.694Z,2.85
2023-05-05T16:53:04.386Z,3.08
2023-05-05T16:55:31.529Z,2.88
2023-05-05T16:57:58.163Z,2.70
2023-05-05T17:00:25.208Z,2.85
2023-05-05T17:02:53.142Z,2.92
2023-05-05T17:05:19.837Z,3.08
2023-05-05T17:07:50.118Z,2.90
2023-05-05T17:10:16.906Z,2.80
2023-05-05T17:12:43.702Z,2.83
2023-05-05T17:15:10.960Z,2.92
2023-05-05T17:17:37.987Z,2.60
2023-05-05T17:20:05.533Z,2.72
2023-05-05T17:22:32.243Z,2.92
2023-05-05T17:24:59.179Z,2.97
2023-05-05T17:27:26.394Z,2.80
2023-05-05T17:29:53.674Z,3.20
2023-05-05T17:32:20.409Z,2.50
2023-05-05T17:34:47.063Z,2.80
2023-05-05T17:37:14.183Z,2.80
2023-05-05T17:39:40.807Z,2.80
2023-05-05T17:42:07.447Z,2.97
2023-05-05T17:44:34.094Z,3.10
2023-05-05T17:47:02.769Z,2.88
2023-05-05T17:49:29.884Z,2.90
2023-05-05T17:51:56.575Z,3.08
2023-05-05T17:54:23.483Z,3.17
2023-05-05T17:56:50.094Z,3.10
2023-05-05T17:59:16.713Z,3.35
2023-05-05T18:01:43.436Z,3.30
2023-05-05T18:04:10.383Z,2.78
2023-05-05T18:06:37.242Z,3.00
2023-05-05T18:09:03.970Z,2.92
2023-05-05T18:11:31.572Z,3.05
2023-05-05T18:13:58.421Z,2.90
2023-05-05T18:16:25.416Z,3.40
2023-05-05T18:18:52.784Z,2.95
2023-05-05T18:21:19.425Z,3.00
2023-05-05T18:23:46.238Z,3.15
2023-05-05T18:26:12.893Z,3.33
2023-05-05T18:28:39.532Z,3.35
2023-05-05T18:31:06.560Z,3.42
2023-05-05T18:33:33.276Z,3.10
2023-05-05T18:35:59.930Z,3.20
2023-05-05T18:38:26.813Z,4.25
2023-05-05T18:40:53.650Z,3.78
2023-05-05T18:43:20.448Z,3.88
2023-05-05T18:45:47.362Z,3.80
2023-05-05T18:48:14.097Z,4.05
2023-05-05T18:50:41.209Z,3.30
2023-05-05T18:53:07.972Z,3.85
2023-05-05T18:55:34.621Z,3.72
2023-05-05T18:58:01.409Z,3.90
2023-05-05T19:00:28.068Z,3.85
2023-05-05T19:02:54.768Z,4.20
2023-05-05T19:05:21.625Z,3.95
2023-05-05T19:07:48.326Z,4.10
2023-05-05T19:10:15.002Z,3.78
2023-05-05T19:12:41.665Z,3.92
2023-05-05T19:15:08.903Z,4.45
2023-05-05T19:17:36.557Z,3.85
2023-05-05T19:20:03.392Z,4.47
2023-05-05T19:22:30.354Z,4.78
2023-05-05T19:24:57.077Z,4.80
2023-05-05T19:27:23.727Z,4.47
2023-05-05T19:29:52.520Z,5.50
2023-05-05T19:32:20.489Z,4.78
2023-05-05T19:34:47.584Z,4.72
2023-05-05T19:37:14.277Z,4.60
2023-05-05T19:39:43.112Z,5.13
2023-05-05T19:42:09.837Z,4.80
2023-05-05T19:44:36.491Z,5.50
2023-05-05T19:47:03.299Z,5.07
2023-05-05T19:49:30.169Z,5.15
2023-05-05T19:51:57.559Z,4.85
2023-05-05T19:54:24.803Z,4.93
2023-05-05T19:56:51.764Z,4.85
2023-05-05T19:59:18.431Z,4.95
2023-05-05T20:01:45.232Z,4.70
2023-05-05T20:04:12.017Z,5.28
2023-05-05T20:06:38.993Z,5.05
2023-05-05T20:09:05.714Z,4.97
2023-05-05T20:11:33.303Z,4.82
2023-05-05T20:13:59.978Z,4.88
2023-05-05T20:16:26.825Z,5.43
2023-05-05T20:18:53.658Z,5.65
2023-05-05T20:21:21.711Z,5.70
2023-05-05T20:23:48.383Z,5.22
2023-05-05T20:26:15.319Z,6.13
2023-05-05T20:28:45.124Z,6.30
2023-05-05T20:31:15.027Z,6.32
2023-05-05T20:33:41.770Z,6.50
2023-05-05T20:36:08.423Z,6.13
2023-05-05T20:38:35.090Z,6.20
2023-05-05T20:41:01.804Z,6.80
2023-05-05T20:43:28.547Z,6.03
2023-05-05T20:45:55.487Z,7.40
2023-05-05T20:48:22.215Z,6.03
2023-05-05T20:50:48.980Z,6.60
2023-05-05T20:53:18.857Z,6.80
2023-05-05T20:55:45.578Z,6.30
2023-05-05T20:58:12.522Z,6.72
2023-05-05T21:00:39.327Z,6.43
2023-05-05T21:03:06.170Z,5.72
2023-05-05T21:05:32.930Z,6.60
2023-05-05T21:08:01.156Z,6.32
2023-05-05T21:10:29.078Z,5.63
2023-05-05T21:12:55.949Z,6.72
2023-05-05T21:15:22.896Z,6.70
2023-05-05T21:17:49.674Z,5.90
2023-05-05T21:20:16.975Z,6.43
2023-05-05T21:22:44.039Z,6.53
2023-05-05T21:25:21.145Z,6.05
2023-05-05T21:27:48.617Z,5.78
2023-05-05T21:30:15.898Z,6.10
2023-05-05T21:32:43.052Z,6.20
2023-05-05T21:35:10.434Z,6.78
2023-05-05T21:37:38.471Z,6.35
2023-05-05T21:40:07.228Z,7.25
2023-05-05T21:42:34.002Z,6.40
2023-05-05T21:45:00.655Z,7.07
2023-05-05T21:47:27.421Z,7.05
2023-05-05T21:49:54.072Z,7.72
2023-05-05T21:52:20.886Z,7.20
2023-05-05T21:54:47.627Z,6.95
2023-05-05T21:57:14.290Z,8.65
2023-05-05T21:59:41.325Z,7.88
2023-05-05T22:02:07.991Z,7.07
2023-05-05T22:04:34.727Z,7.95
2023-05-05T22:07:01.441Z,7.07
2023-05-05T22:09:28.140Z,7.70
2023-05-05T22:11:54.893Z,7.38
2023-05-05T22:14:21.565Z,8.00
2023-05-05T22:16:48.235Z,7.97
2023-05-05T22:19:14.890Z,7.90
2023-05-05T22:21:41.519Z,7.60
2023-05-05T22:24:08.176Z,7.07
2023-05-05T22:26:34.850Z,7.43
2023-05-05T22:29:01.621Z,7.85
2023-05-05T22:31:29.453Z,7.85
2023-05-05T22:33:56.231Z,7.97
2023-05-05T22:36:23.297Z,8.23
2023-05-05T22:38:49.930Z,7.15
2023-05-05T22:41:16.582Z,8.10
2023-05-05T22:43:43.229Z,7.32
2023-05-05T22:46:09.969Z,8.15
2023-05-05T22:48:36.754Z,7.47
2023-05-05T22:51:03.701Z,8.20
2023-05-05T22:53:30.356Z,8.00
2023-05-05T22:55:58.403Z,7.53
2023-05-05T22:58:25.789Z,6.93
2023-05-05T23:00:52.541Z,7.28
2023-05-05T23:03:19.315Z,7.10
2023-05-05T23:05:46.014Z,7.90
2023-05-05T23:08:12.717Z,6.60
2023-05-05T23:10:39.421Z,7.20
2023-05-05T23:13:06.195Z,7.40
2023-05-05T23:15:32.942Z,6.95
2023-05-05T23:17:59.625Z,7.55
2023-05-05T23:20:26.447Z,6.93
2023-05-05T23:22:53.370Z,7.20
2023-05-05T23:25:19.994Z,7.35
2023-05-05T23:27:46.658Z,6.88
2023-05-05T23:30:13.705Z,6.78
2023-05-05T23:32:40.467Z,7.13
2023-05-05T23:35:07.829Z,7.57
2023-05-05T23:37:34.772Z,7.55
2023-05-05T23:40:01.409Z,6.97
2023-05-05T23:42:28.043Z,7.43
2023-05-05T23:44:54.673Z,6.68
2023-05-05T23:47:21.329Z,8.00
2023-05-05T23:49:48.009Z,7.28
2023-05-05T23:52:14.687Z,8.13
2023-05-05T23:54:41.637Z,7.25
2023-05-05T23:57:08.284Z,7.80
2023-05-05T23:59:34.935Z,7.28
